createdAt,value
2018-01-20T00:00:36.633Z,7.97
2018-01-20T00:03:06.121Z,5.05
2018-01-20T00:05:35.632Z,13.25
2018-01-20T00:08:05.105Z,5.93
2018-01-20T00:10:40.488Z,6.32
2018-01-20T00:13:09.935Z,5.07
2018-01-20T00:15:39.444Z,4.65
2018-01-20T00:18:08.909Z,5.37
2018-01-20T00:20:38.407Z,5.15
2018-01-20T00:23:07.874Z,5.28
2018-01-20T00:25:37.487Z,5.25
2018-01-20T00:28:07.068Z,5.25
2018-01-20T00:30:36.527Z,5.15
2018-01-20T00:33:06.010Z,5.30
2018-01-20T00:35:35.677Z,5.20
2018-01-20T00:38:05.182Z,5.18
2018-01-20T00:40:34.645Z,5.95
2018-01-20T00:43:04.140Z,4.70
2018-01-20T00:45:33.818Z,5.25
2018-01-20T00:48:03.362Z,5.85
2018-01-20T00:50:32.874Z,6.03
2018-01-20T00:53:02.401Z,4.65
2018-01-20T00:55:31.916Z,4.53
2018-01-20T00:58:01.395Z,5.53
2018-01-20T01:00:31.021Z,4.20
2018-01-20T01:03:00.510Z,4.60
2018-01-20T01:05:30.197Z,4.70
2018-01-20T01:07:59.669Z,4.43
2018-01-20T01:10:29.188Z,4.15
2018-01-20T01:12:58.659Z,3.40
2018-01-20T01:15:28.169Z,3.10
2018-01-20T01:17:57.639Z,3.60
2018-01-20T01:20:27.148Z,4.22
2018-01-20T01:22:56.650Z,5.53
2018-01-20T01:25:26.134Z,4.80
2018-01-20T01:27:55.791Z,6.53
2018-01-20T01:30:25.283Z,5.10
2018-01-20T01:32:54.789Z,4.40
2018-01-20T01:35:24.252Z,5.57
2018-01-20T01:37:53.879Z,5.30
2018-01-20T01:40:23.396Z,5.60
2018-01-20T01:42:52.962Z,5.10
2018-01-20T01:45:22.485Z,5.37
2018-01-20T01:47:52.096Z,6.07
2018-01-20T01:50:21.611Z,5.72
2018-01-20T01:52:51.122Z,5.55
2018-01-20T01:55:20.619Z,6.60
2018-01-20T01:57:50.084Z,6.12
2018-01-20T02:00:19.591Z,5.85
2018-01-20T02:02:49.077Z,6.30
2018-01-20T02:05:18.590Z,6.53
2018-01-20T02:07:48.088Z,7.30
2018-01-20T02:10:17.591Z,6.72
2018-01-20T02:12:47.084Z,7.35
2018-01-20T02:15:16.589Z,8.05
2018-01-20T02:17:46.096Z,7.90
2018-01-20T02:20:15.574Z,7.15
2018-01-20T02:22:45.095Z,7.47
2018-01-20T02:25:14.535Z,7.62
2018-01-20T02:27:44.057Z,6.80
2018-01-20T02:30:13.648Z,6.75
2018-01-20T02:32:43.202Z,7.30
2018-01-20T02:35:12.688Z,7.90
2018-01-20T02:37:42.191Z,7.05
2018-01-20T02:40:11.671Z,7.47
2018-01-20T02:42:41.162Z,7.55
2018-01-20T02:45:10.674Z,6.25
2018-01-20T02:47:40.181Z,6.50
2018-01-20T02:50:09.643Z,6.68
2018-01-20T02:52:39.147Z,6.65
2018-01-20T02:55:08.608Z,6.50
2018-01-20T02:57:38.119Z,7.32
2018-01-20T03:00:07.600Z,6.30
2018-01-20T03:02:37.081Z,6.50
2018-01-20T03:05:06.539Z,6.32
2018-01-20T03:07:36.043Z,5.37
2018-01-20T03:10:05.503Z,6.10
2018-01-20T03:12:34.993Z,5.50
2018-01-20T03:15:04.516Z,5.25
2018-01-20T03:17:33.988Z,5.78
2018-01-20T03:20:03.541Z,4.90
2018-01-20T03:22:32.991Z,4.30
2018-01-20T03:25:02.510Z,2.92
2018-01-20T03:27:32.008Z,3.53
2018-01-20T03:30:01.515Z,3.87
2018-01-20T03:32:31.022Z,4.20
2018-01-20T03:35:00.495Z,3.00
2018-01-20T03:37:29.999Z,3.60
2018-01-20T03:39:59.509Z,4.30
2018-01-20T03:42:29.203Z,3.83
2018-01-20T03:44:58.685Z,2.75
2018-01-20T03:47:28.165Z,3.97
2018-01-20T03:49:57.754Z,2.80
2018-01-20T03:52:27.256Z,3.30
2018-01-20T03:54:56.712Z,3.05
2018-01-20T03:57:26.214Z,3.30
2018-01-20T03:59:55.669Z,4.20
2018-01-20T04:02:25.212Z,4.00
2018-01-20T04:04:54.800Z,3.90
2018-01-20T04:07:24.293Z,4.12
2018-01-20T04:09:53.750Z,4.62
2018-01-20T04:12:23.282Z,4.22
2018-01-20T04:14:52.753Z,4.80
2018-01-20T04:17:22.261Z,4.45
2018-01-20T04:19:51.759Z,5.70
2018-01-20T04:22:21.218Z,5.00
2018-01-20T04:24:50.732Z,5.87
2018-01-20T04:27:20.219Z,6.07
2018-01-20T04:29:49.732Z,6.28
2018-01-20T04:32:19.229Z,6.00
2018-01-20T04:34:48.750Z,5.70
2018-01-20T04:37:18.211Z,6.25
2018-01-20T04:39:47.724Z,5.50
2018-01-20T04:42:17.302Z,6.40
2018-01-20T04:44:46.816Z,7.45
2018-01-20T04:47:16.293Z,6.80
2018-01-20T04:49:45.780Z,7.65
2018-01-20T04:52:15.272Z,8.93
2018-01-20T04:54:44.737Z,7.68
2018-01-20T04:57:14.284Z,7.45
2018-01-20T04:59:43.750Z,7.65
2018-01-20T05:02:13.251Z,6.90
2018-01-20T05:04:42.707Z,8.38
2018-01-20T05:07:12.348Z,7.72
2018-01-20T05:09:41.858Z,8.07
2018-01-20T05:12:11.390Z,7.35
2018-01-20T05:14:40.823Z,7.07
2018-01-20T05:17:10.341Z,7.07
2018-01-20T05:19:39.870Z,8.02
2018-01-20T05:22:09.352Z,7.95
2018-01-20T05:24:38.840Z,8.32
2018-01-20T05:27:08.347Z,8.85
2018-01-20T05:29:37.861Z,8.35
2018-01-20T05:32:07.364Z,8.18
2018-01-20T05:34:36.979Z,8.23
2018-01-20T05:37:06.457Z,8.38
2018-01-20T05:39:35.963Z,8.70
2018-01-20T05:42:05.446Z,8.75
2018-01-20T05:44:34.956Z,7.70
2018-01-20T05:47:04.428Z,8.30
2018-01-20T05:49:34.879Z,10.90
2018-01-20T05:52:04.340Z,9.70
2018-01-20T05:54:33.869Z,8.65
2018-01-20T05:57:03.327Z,8.02
2018-01-20T05:59:32.863Z,8.77
2018-01-20T06:02:02.384Z,8.50
2018-01-20T06:04:31.860Z,10.00
2018-01-20T06:07:01.564Z,13.60
2018-01-20T06:09:31.041Z,10.98
2018-01-20T06:12:00.955Z,11.32
2018-01-20T06:14:30.409Z,8.32
2018-01-20T06:16:59.989Z,8.65
2018-01-20T06:19:29.462Z,11.90
2018-01-20T06:21:59.104Z,10.63
2018-01-20T06:24:28.596Z,17.42
2018-01-20T06:26:58.115Z,11.00
2018-01-20T06:29:27.581Z,7.80
2018-01-20T06:31:57.085Z,7.12
2018-01-20T06:34:26.594Z,7.75
2018-01-20T06:36:56.049Z,6.80
2018-01-20T06:39:25.554Z,6.22
2018-01-20T06:41:55.045Z,6.95
2018-01-20T06:44:24.523Z,6.80
2018-01-20T06:46:53.989Z,6.72
2018-01-20T06:49:23.524Z,7.20
2018-01-20T06:51:53.001Z,7.60
2018-01-20T06:54:22.461Z,9.45
2018-01-20T06:56:51.970Z,7.15
2018-01-20T06:59:21.424Z,7.43
2018-01-20T07:01:50.914Z,7.20
2018-01-20T07:04:20.392Z,6.78
2018-01-20T07:06:50.089Z,6.60
2018-01-20T07:09:19.573Z,6.37
2018-01-20T07:11:49.132Z,7.60
2018-01-20T07:14:18.585Z,6.15
2018-01-20T07:16:48.243Z,6.70
2018-01-20T07:19:17.704Z,7.07
2018-01-20T07:21:47.207Z,6.68
2018-01-20T07:24:16.702Z,7.70
2018-01-20T07:26:46.186Z,7.25
2018-01-20T07:29:15.690Z,7.10
2018-01-20T07:31:45.150Z,6.70
2018-01-20T07:34:14.665Z,8.50
2018-01-20T07:36:44.185Z,7.90
2018-01-20T07:39:13.684Z,7.07
2018-01-20T07:41:43.160Z,6.55
2018-01-20T07:44:12.819Z,7.12
2018-01-20T07:46:42.274Z,7.25
2018-01-20T07:49:11.789Z,7.80
2018-01-20T07:51:41.309Z,8.13
2018-01-20T07:54:10.765Z,7.28
2018-01-20T07:56:40.267Z,7.05
2018-01-20T07:59:09.768Z,7.07
2018-01-20T08:01:39.275Z,7.05
2018-01-20T08:04:08.756Z,7.18
2018-01-20T08:06:38.264Z,6.72
2018-01-20T08:09:07.873Z,6.97
2018-01-20T08:11:37.401Z,7.47
2018-01-20T08:14:06.924Z,7.93
2018-01-20T08:16:36.406Z,6.78
2018-01-20T08:19:05.891Z,6.78
2018-01-20T08:21:35.381Z,6.55
2018-01-20T08:24:04.879Z,7.35
2018-01-20T08:26:34.355Z,7.12
2018-01-20T08:29:03.882Z,7.65
2018-01-20T08:31:33.347Z,7.05
2018-01-20T08:34:02.846Z,8.27
2018-01-20T08:36:32.351Z,8.50
2018-01-20T08:39:01.883Z,7.25
2018-01-20T08:41:31.519Z,7.53
2018-01-20T08:44:01.012Z,6.85
2018-01-20T08:46:30.502Z,6.47
2018-01-20T08:48:59.974Z,6.60
2018-01-20T08:51:29.505Z,6.90
2018-01-20T08:53:58.949Z,6.68
2018-01-20T08:56:28.456Z,6.95
2018-01-20T08:58:57.954Z,8.95
2018-01-20T09:01:27.547Z,9.05
2018-01-20T09:03:56.990Z,8.38
2018-01-20T09:06:26.509Z,8.15
2018-01-20T09:08:56.063Z,9.70
2018-01-20T09:11:25.515Z,9.32
2018-01-20T09:13:55.032Z,9.73
2018-01-20T09:16:24.511Z,10.20
2018-01-20T09:18:54.014Z,9.65
2018-01-20T09:21:23.536Z,9.07
2018-01-20T09:23:53.028Z,8.70
2018-01-20T09:26:22.506Z,8.15
2018-01-20T09:28:51.968Z,8.07
2018-01-20T09:31:21.483Z,7.10
2018-01-20T09:33:50.985Z,5.37
2018-01-20T09:36:20.466Z,7.18
2018-01-20T09:38:50.033Z,5.12
2018-01-20T09:41:19.506Z,3.35
2018-01-20T09:43:48.990Z,2.75
2018-01-20T09:46:18.448Z,3.25
2018-01-20T09:48:48.000Z,2.25
2018-01-20T09:51:17.452Z,3.37
2018-01-20T09:53:46.945Z,3.65
2018-01-20T09:56:16.418Z,3.33
2018-01-20T09:58:45.902Z,3.75
2018-01-20T10:01:15.370Z,3.75
2018-01-20T10:03:44.862Z,2.95
2018-01-20T10:06:14.346Z,3.05
2018-01-20T10:08:43.892Z,3.65
2018-01-20T10:11:13.373Z,4.28
2018-01-20T10:13:42.874Z,3.12
2018-01-20T10:16:12.488Z,3.05
2018-01-20T10:18:41.962Z,3.28
2018-01-20T10:21:11.442Z,3.87
2018-01-20T10:23:40.930Z,3.62
2018-01-20T10:26:10.454Z,3.92
2018-01-20T10:28:40.055Z,3.60
2018-01-20T10:31:09.561Z,4.55
2018-01-20T10:33:39.072Z,4.30
2018-01-20T10:36:08.545Z,4.03
2018-01-20T10:38:38.070Z,4.37
2018-01-20T10:41:07.530Z,4.55
2018-01-20T10:43:37.033Z,4.90
2018-01-20T10:46:06.517Z,3.92
2018-01-20T10:48:36.069Z,4.57
2018-01-20T10:51:05.574Z,4.53
2018-01-20T10:53:35.047Z,4.82
2018-01-20T10:56:04.542Z,4.45
2018-01-20T10:58:34.104Z,4.45
2018-01-20T11:01:03.594Z,5.10
2018-01-20T11:03:33.043Z,4.45
2018-01-20T11:06:02.534Z,5.72
2018-01-20T11:08:32.043Z,4.85
2018-01-20T11:11:01.564Z,5.65
2018-01-20T11:13:31.030Z,5.37
2018-01-20T11:16:00.567Z,5.35
2018-01-20T11:18:30.105Z,5.07
2018-01-20T11:20:59.605Z,5.18
2018-01-20T11:23:29.128Z,5.00
2018-01-20T11:25:58.579Z,5.43
2018-01-20T11:28:28.124Z,6.05
2018-01-20T11:30:57.596Z,5.62
2018-01-20T11:33:27.199Z,5.05
2018-01-20T11:35:56.670Z,5.55
2018-01-20T11:38:26.256Z,4.85
2018-01-20T11:40:55.736Z,5.68
2018-01-20T11:43:25.251Z,5.55
2018-01-20T11:45:54.724Z,5.93
2018-01-20T11:48:24.263Z,5.47
2018-01-20T11:50:53.893Z,5.93
2018-01-20T11:53:23.402Z,5.60
2018-01-20T11:55:52.879Z,6.00
2018-01-20T11:58:22.348Z,6.03
2018-01-20T12:00:51.842Z,5.22
2018-01-20T12:03:21.311Z,4.95
2018-01-20T12:05:50.850Z,5.05
2018-01-20T12:08:20.443Z,5.05
2018-01-20T12:10:49.992Z,4.37
2018-01-20T12:13:19.557Z,5.50
2018-01-20T12:15:49.033Z,5.20
2018-01-20T12:18:18.522Z,5.43
2018-01-20T12:20:48.047Z,6.20
2018-01-20T12:23:17.533Z,6.30
2018-01-20T12:25:47.058Z,5.70
2018-01-20T12:28:16.632Z,6.15
2018-01-20T12:30:46.116Z,6.43
2018-01-20T12:33:15.635Z,5.95
2018-01-20T12:35:45.132Z,5.22
2018-01-20T12:38:14.673Z,4.95
2018-01-20T12:40:44.202Z,5.53
2018-01-20T12:43:13.691Z,5.30
2018-01-20T12:45:43.151Z,5.30
2018-01-20T12:48:12.667Z,5.25
2018-01-20T12:50:42.143Z,5.60
2018-01-20T12:53:11.650Z,5.47
2018-01-20T12:55:41.207Z,5.05
2018-01-20T12:58:10.707Z,5.28
2018-01-20T13:00:40.324Z,6.68
2018-01-20T13:03:09.817Z,5.47
2018-01-20T13:05:39.301Z,5.47
2018-01-20T13:08:08.816Z,4.70
2018-01-20T13:10:38.372Z,4.32
2018-01-20T13:13:07.851Z,5.05
2018-01-20T13:15:37.357Z,4.95
2018-01-20T13:18:06.941Z,5.03
2018-01-20T13:20:36.392Z,5.28
2018-01-20T13:23:05.923Z,5.43
2018-01-20T13:25:35.388Z,4.40
2018-01-20T13:28:04.931Z,5.65
2018-01-20T13:30:34.421Z,5.03
2018-01-20T13:33:04.013Z,5.28
2018-01-20T13:35:33.480Z,3.65
2018-01-20T13:38:03.011Z,3.80
2018-01-20T13:40:32.498Z,4.62
2018-01-20T13:43:02.003Z,4.70
2018-01-20T13:45:31.520Z,3.90
2018-01-20T13:48:01.022Z,4.62
2018-01-20T13:50:30.514Z,4.37
2018-01-20T13:52:59.983Z,3.62
2018-01-20T13:55:29.624Z,4.40
2018-01-20T13:57:59.129Z,4.25
2018-01-20T14:00:28.645Z,4.30
2018-01-20T14:02:58.283Z,3.90
2018-01-20T14:05:27.742Z,3.62
2018-01-20T14:07:57.656Z,4.18
2018-01-20T14:10:27.109Z,4.15
2018-01-20T14:12:56.644Z,3.47
2018-01-20T14:15:26.090Z,3.90
2018-01-20T14:17:55.617Z,4.12
2018-01-20T14:20:25.123Z,3.70
2018-01-20T14:22:54.622Z,3.15
2018-01-20T14:25:24.156Z,3.60
2018-01-20T14:27:53.626Z,3.47
2018-01-20T14:30:23.115Z,3.60
2018-01-20T14:32:52.566Z,3.25
2018-01-20T14:35:22.119Z,3.22
2018-01-20T14:37:51.588Z,3.62
2018-01-20T14:40:21.096Z,3.50
2018-01-20T14:42:50.596Z,3.92
2018-01-20T14:45:20.113Z,3.20
2018-01-20T14:47:49.610Z,3.22
2018-01-20T14:50:19.078Z,3.97
2018-01-20T14:52:48.641Z,3.55
2018-01-20T14:55:18.295Z,3.00
2018-01-20T14:57:48.001Z,3.50
2018-01-20T15:00:18.132Z,3.75
2018-01-20T15:02:47.602Z,4.00
2018-01-20T15:05:17.092Z,3.25
2018-01-20T15:07:46.571Z,4.10
2018-01-20T15:10:16.119Z,3.75
2018-01-20T15:12:45.574Z,3.92
2018-01-20T15:15:15.071Z,4.60
2018-01-20T15:17:44.569Z,3.78
2018-01-20T15:20:14.104Z,4.20
2018-01-20T15:22:43.630Z,3.40
2018-01-20T15:25:13.135Z,3.70
2018-01-20T15:27:43.053Z,3.80
2018-01-20T15:30:12.668Z,3.50
2018-01-20T15:32:42.128Z,3.40
2018-01-20T15:35:11.644Z,4.00
2018-01-20T15:37:41.125Z,3.72
2018-01-20T15:40:10.643Z,4.07
2018-01-20T15:42:40.295Z,4.25
2018-01-20T15:45:09.904Z,4.25
2018-01-20T15:47:39.400Z,3.90
2018-01-20T15:50:08.911Z,4.00
2018-01-20T15:52:38.436Z,4.40
2018-01-20T15:55:07.922Z,4.15
2018-01-20T15:57:37.411Z,4.72
2018-01-20T16:00:06.987Z,4.22
2018-01-20T16:02:36.482Z,5.60
2018-01-20T16:05:05.980Z,4.35
2018-01-20T16:07:35.556Z,6.65
2018-01-20T16:10:05.060Z,8.02
2018-01-20T16:12:34.555Z,6.10
2018-01-20T16:15:04.077Z,5.43
2018-01-20T16:17:33.702Z,5.00
2018-01-20T16:20:03.335Z,6.15
2018-01-20T16:22:32.916Z,5.85
2018-01-20T16:25:02.465Z,5.78
2018-01-20T16:27:31.937Z,6.25
2018-01-20T16:30:01.524Z,7.80
2018-01-20T16:32:31.082Z,6.78
2018-01-20T16:35:00.677Z,6.72
2018-01-20T16:37:30.207Z,8.82
2018-01-20T16:39:59.668Z,10.07
2018-01-20T16:42:29.232Z,9.35
2018-01-20T16:44:58.705Z,8.95
2018-01-20T16:47:28.247Z,9.88
2018-01-20T16:49:57.721Z,9.00
2018-01-20T16:52:27.350Z,7.35
2018-01-20T16:54:56.850Z,9.45
2018-01-20T16:57:26.389Z,11.35
2018-01-20T16:59:55.858Z,14.50
2018-01-20T17:02:25.416Z,12.40
2018-01-20T17:04:54.908Z,12.20
2018-01-20T17:07:24.407Z,11.32
2018-01-20T17:09:53.874Z,11.82
2018-01-20T17:12:23.388Z,11.55
2018-01-20T17:14:53.029Z,10.82
2018-01-20T17:17:22.535Z,9.13
2018-01-20T17:19:52.139Z,8.85
2018-01-20T17:22:21.645Z,7.82
2018-01-20T17:24:51.212Z,8.23
2018-01-20T17:27:20.676Z,7.62
2018-01-20T17:29:50.177Z,6.00
2018-01-20T17:32:19.693Z,7.05
2018-01-20T17:34:49.206Z,7.57
2018-01-20T17:37:18.664Z,6.20
2018-01-20T17:39:48.175Z,5.68
2018-01-20T17:42:17.674Z,5.20
2018-01-20T17:44:47.166Z,4.53
2018-01-20T17:47:16.654Z,4.80
2018-01-20T17:49:46.173Z,5.97
2018-01-20T17:52:15.694Z,5.90
2018-01-20T17:54:45.213Z,5.90
2018-01-20T17:57:14.711Z,6.50
2018-01-20T17:59:44.212Z,5.65
2018-01-20T18:02:13.722Z,5.60
2018-01-20T18:04:43.222Z,5.35
2018-01-20T18:07:12.754Z,5.78
2018-01-20T18:09:42.319Z,5.10
2018-01-20T18:12:11.834Z,5.35
2018-01-20T18:14:41.293Z,4.75
2018-01-20T18:17:10.788Z,5.75
2018-01-20T18:19:40.263Z,5.10
2018-01-20T18:22:09.764Z,4.87
2018-01-20T18:24:39.234Z,4.72
2018-01-20T18:27:08.792Z,5.25
2018-01-20T18:29:38.310Z,4.62
2018-01-20T18:32:07.828Z,4.87
2018-01-20T18:34:37.371Z,4.95
2018-01-20T18:37:06.829Z,5.45
2018-01-20T18:39:36.357Z,5.53
2018-01-20T18:42:05.850Z,5.40
2018-01-20T18:44:35.400Z,7.43
2018-01-20T18:47:04.911Z,9.23
2018-01-20T18:49:34.413Z,8.20
2018-01-20T18:52:03.896Z,7.78
2018-01-20T18:54:33.419Z,7.00
2018-01-20T18:57:02.892Z,6.82
2018-01-20T18:59:32.549Z,5.80
2018-01-20T19:02:02.042Z,5.20
2018-01-20T19:04:31.524Z,3.72
2018-01-20T19:07:00.990Z,4.25
2018-01-20T19:09:30.491Z,4.90
2018-01-20T19:11:59.972Z,4.90
2018-01-20T19:14:29.502Z,5.05
2018-01-20T19:16:59.023Z,5.25
2018-01-20T19:19:28.532Z,4.65
2018-01-20T19:21:58.036Z,5.15
2018-01-20T19:24:27.506Z,5.45
2018-01-20T19:26:57.035Z,4.53
2018-01-20T19:29:26.533Z,3.95
2018-01-20T19:31:56.000Z,4.18
2018-01-20T19:34:25.510Z,4.75
2018-01-20T19:36:54.978Z,4.35
2018-01-20T19:39:24.477Z,4.80
2018-01-20T19:41:53.918Z,4.68
2018-01-20T19:44:23.606Z,3.65
2018-01-20T19:46:53.078Z,4.47
2018-01-20T19:49:22.599Z,3.90
2018-01-20T19:51:52.154Z,4.40
2018-01-20T19:54:21.639Z,4.40
2018-01-20T19:56:51.325Z,4.75
2018-01-20T19:59:20.917Z,5.28
2018-01-20T20:01:50.399Z,5.03
2018-01-20T20:04:19.954Z,5.53
2018-01-20T20:06:49.433Z,4.50
2018-01-20T20:09:18.958Z,4.40
2018-01-20T20:11:48.437Z,4.28
2018-01-20T20:14:18.074Z,4.43
2018-01-20T20:16:47.508Z,5.22
2018-01-20T20:19:16.969Z,5.55
2018-01-20T20:21:46.701Z,4.75
2018-01-20T20:24:16.208Z,4.95
2018-01-20T20:26:45.655Z,4.43
2018-01-20T20:29:15.153Z,4.62
2018-01-20T20:31:44.622Z,4.43
2018-01-20T20:34:14.241Z,4.45
2018-01-20T20:36:43.798Z,3.83
2018-01-20T20:39:13.275Z,4.75
2018-01-20T20:41:42.878Z,4.10
2018-01-20T20:44:12.329Z,4.47
2018-01-20T20:46:41.877Z,5.07
2018-01-20T20:49:12.017Z,5.18
2018-01-20T20:51:41.569Z,8.80
2018-01-20T20:54:11.085Z,12.50
2018-01-20T20:56:40.598Z,17.73
2018-01-20T20:59:10.185Z,18.02
2018-01-20T21:01:39.720Z,14.45
2018-01-20T21:04:09.218Z,12.68
2018-01-20T21:06:38.773Z,12.82
2018-01-20T21:09:08.318Z,9.57
2018-01-20T21:11:37.835Z,11.57
2018-01-20T21:14:07.477Z,9.80
2018-01-20T21:16:37.024Z,10.90
2018-01-20T21:19:06.546Z,9.77
2018-01-20T21:21:36.039Z,12.63
2018-01-20T21:24:05.629Z,12.15
2018-01-20T21:26:35.085Z,12.95
2018-01-20T21:29:04.598Z,12.77
2018-01-20T21:31:34.112Z,11.27
2018-01-20T21:34:03.622Z,11.98
2018-01-20T21:36:33.118Z,12.55
2018-01-20T21:39:02.754Z,10.48
2018-01-20T21:41:32.235Z,8.82
2018-01-20T21:44:01.735Z,8.80
2018-01-20T21:46:31.371Z,6.82
2018-01-20T21:49:00.871Z,6.80
2018-01-20T21:51:30.404Z,5.93
2018-01-20T21:53:59.872Z,6.78
2018-01-20T21:56:29.424Z,8.88
2018-01-20T21:58:58.941Z,9.63
2018-01-20T22:01:28.429Z,11.15
2018-01-20T22:03:57.985Z,13.10
2018-01-20T22:06:27.524Z,10.73
2018-01-20T22:08:57.060Z,10.63
2018-01-20T22:11:26.486Z,12.27
2018-01-20T22:13:55.984Z,9.50
2018-01-20T22:16:25.495Z,9.05
2018-01-20T22:18:54.987Z,10.75
2018-01-20T22:21:24.548Z,7.95
2018-01-20T22:23:53.997Z,8.30
2018-01-20T22:26:23.488Z,8.85
2018-01-20T22:28:52.980Z,11.40
2018-01-20T22:31:22.498Z,13.10
2018-01-20T22:33:52.002Z,12.05
2018-01-20T22:36:21.492Z,8.75
2018-01-20T22:38:50.981Z,9.55
2018-01-20T22:41:20.454Z,9.27
2018-01-20T22:43:49.971Z,10.15
2018-01-20T22:46:19.446Z,8.60
2018-01-20T22:48:48.943Z,7.75
2018-01-20T22:51:18.423Z,9.10
2018-01-20T22:53:47.934Z,9.93
2018-01-20T22:56:18.287Z,10.52
2018-01-20T22:58:48.634Z,14.20
2018-01-20T23:01:23.955Z,11.40
2018-01-20T23:03:53.429Z,11.68
2018-01-20T23:06:22.921Z,9.50
2018-01-20T23:08:52.395Z,10.70
2018-01-20T23:11:21.916Z,8.98
2018-01-20T23:13:51.382Z,10.25
2018-01-20T23:16:20.911Z,10.13
2018-01-20T23:18:50.575Z,9.48
2018-01-20T23:21:20.058Z,9.10
2018-01-20T23:23:49.596Z,9.95
2018-01-20T23:26:19.096Z,7.25
2018-01-20T23:28:48.633Z,7.28
2018-01-20T23:31:18.102Z,8.93
2018-01-20T23:33:47.601Z,8.20
2018-01-20T23:36:17.076Z,5.90
2018-01-20T23:38:46.555Z,7.15
2018-01-20T23:41:16.207Z,8.90
2018-01-20T23:43:45.721Z,7.32
2018-01-20T23:46:15.236Z,7.20
2018-01-20T23:48:44.805Z,6.30
2018-01-20T23:51:14.463Z,7.20
2018-01-20T23:53:43.953Z,7.50
2018-01-20T23:56:13.625Z,8.05
2018-01-20T23:58:43.072Z,9.82
